Terminal Aerodrome Forecast
Issued by NWS Shreveport, LA

Home | Current Version | Previous Version | Text Only | Print | Product List | Glossary On
Versions: 1 2 3 4 5 6 7 8 9 10 11 12 13 14 15 16 17 18 19 20 21 22
000
FTUS44 KSHV 211300 AAA
TAFSHV
TAF AMD
KSHV 211323Z 2113/2212 00000KT P6SM MIFG FEW045 FEW270
     FM211600 10004KT 6SM BR FEW007 SCT250
     FM211800 13005KT P6SM FEW035 SCT250
     FM220000 15005KT P6SM SCT250
     FM220600 18006KT 4SM BR OVC015=

USA.gov is the U.S. government's official web portal to all federal, state and local government web resources and services.